Trade, TN

11:25 PM EST on December 28, 2014 (GMT -0500)
Trade | Change Station
CLOSE
Current Station
Personal Weather Station
Location: Trade, TN
Elevation: 3143 ft
Nearby Weather Stations

Elev 3143 ft 36.38 °N, 81.75 °W | Updated 12 seconds ago

Overcast
Overcast
46.9 °F
Feels Like 44 °F
N
5.4
Wind Variable Wind from WNW
Gusts 15.4 mph

Today
High -- | Low -- °F
--% Chance of Precip.
Yesterday
High -- | Low -- °F
Precip. -- in
7:37 AM 5:19 PM
First Quarter, 55% visible
Pressure 30.08 in
Visibility 10.0 miles
Clouds Overcast 7000 ft
Windchill 44 °F
Dew Point 46 °F
Humidity 96%
Rainfall 0.04 in
Snow Depth Not available.
UV 0 out of 12
Pollen .10 out of 12
Air Quality Not available.
Flu Activity Not available.
METAR KTNB 290415Z AUTO 28008KT 10SM OVC070 09/08 A3008 RMK AO2 T00900080

More Conditions Fewer Conditions

Pressure 30.08 in
Visibility 10.0 miles
Clouds Overcast 7000 ft
Windchill 44 °F
Dew Point 46 °F
Humidity 96%
Rainfall 0.04 in
Snow Depth Not available.
UV 0 out of 12
Pollen .10 out of 12
Air Quality Not available.
Flu Activity Not available.
METAR KTNB 290415Z AUTO 28008KT 10SM OVC070 09/08 A3008 RMK AO2 T00900080

More Conditions Fewer Conditions

10-Day Weather Forecast

Almanac

Astronomy

Dec. 28, 2014 Rise Set
Actual Time
Civil Twilight
Nautical Twilight
Astronomical Twilight
Moon
Length of Visible Light
Length of Day
Tomorrow will be .
, % of the Moon is Illuminated

Today's Extremes

State Highs State Lows

Community

WunderPhotos

Upload Photos

1,781,534 photos uploaded!

WunderBlogs® & News

Nearby

Air Quality

  Air Quality AQ Index Pollutant
Not available.

Snow Depth

Station Depth Elevation

Earthquake Activity

City Distance Mag. Time & Date
Minimum magnitude displayed is 2.5.

Coastal Water Temperatures

Place Temperature

Nearby Weather Stations